createdAt,value
2023-04-19T00:00:08.410Z,10.10
2023-04-19T00:02:38.137Z,10.27
2023-04-19T00:05:09.328Z,10.30
2023-04-19T00:07:37.143Z,9.35
2023-04-19T00:10:05.925Z,9.35
2023-04-19T00:12:33.671Z,9.85
2023-04-19T00:15:01.585Z,9.55
2023-04-19T00:17:29.707Z,10.23
2023-04-19T00:19:58.029Z,9.07
2023-04-19T00:22:27.286Z,9.52
2023-04-19T00:24:55.212Z,9.75
2023-04-19T00:27:23.493Z,9.07
2023-04-19T00:29:51.334Z,8.48
2023-04-19T00:32:19.034Z,8.38
2023-04-19T00:34:47.209Z,8.32
2023-04-19T00:37:14.999Z,8.98
2023-04-19T00:39:44.232Z,7.35
2023-04-19T00:42:12.118Z,7.22
2023-04-19T00:44:40.311Z,8.52
2023-04-19T00:47:08.179Z,7.53
2023-04-19T00:49:35.964Z,8.18
2023-04-19T00:52:04.140Z,7.55
2023-04-19T00:54:32.479Z,7.05
2023-04-19T00:57:01.557Z,7.20
2023-04-19T00:59:30.229Z,7.20
2023-04-19T01:01:58.504Z,7.50
2023-04-19T01:04:26.837Z,7.07
2023-04-19T01:06:54.964Z,7.18
2023-04-19T01:09:22.996Z,6.70
2023-04-19T01:11:51.788Z,7.05
2023-04-19T01:14:20.924Z,7.07
2023-04-19T01:16:49.210Z,6.70
2023-04-19T01:19:17.047Z,6.68
2023-04-19T01:21:46.478Z,7.13
2023-04-19T01:24:16.161Z,6.85
2023-04-19T01:26:43.977Z,6.55
2023-04-19T01:29:12.076Z,6.45
2023-04-19T01:31:39.854Z,6.38
2023-04-19T01:34:07.698Z,6.60
2023-04-19T01:36:35.513Z,7.10
2023-04-19T01:39:03.564Z,6.20
2023-04-19T01:41:32.805Z,7.05
2023-04-19T01:44:01.990Z,7.28
2023-04-19T01:46:30.222Z,7.22
2023-04-19T01:48:58.424Z,6.57
2023-04-19T01:51:26.870Z,6.47
2023-04-19T01:53:55.521Z,6.70
2023-04-19T01:56:24.881Z,6.05
2023-04-19T01:58:54.619Z,6.60
2023-04-19T02:01:22.792Z,6.88
2023-04-19T02:03:52.960Z,6.65
2023-04-19T02:06:22.362Z,6.10
2023-04-19T02:08:52.154Z,6.07
2023-04-19T02:11:20.747Z,5.32
2023-04-19T02:13:48.901Z,6.05
2023-04-19T02:16:18.331Z,5.97
2023-04-19T02:18:46.731Z,5.80
2023-04-19T02:21:15.240Z,5.47
2023-04-19T02:23:43.498Z,5.75
2023-04-19T02:26:12.983Z,5.63
2023-04-19T02:28:44.192Z,5.55
2023-04-19T02:31:13.841Z,5.60
2023-04-19T02:33:43.099Z,6.03
2023-04-19T02:36:12.123Z,5.72
2023-04-19T02:38:39.866Z,6.15
2023-04-19T02:41:07.660Z,6.70
2023-04-19T02:43:35.330Z,6.43
2023-04-19T02:46:03.202Z,5.88
2023-04-19T02:48:31.357Z,5.75
2023-04-19T02:51:00.835Z,5.90
2023-04-19T02:53:28.957Z,5.22
2023-04-19T02:55:57.393Z,5.78
2023-04-19T02:58:26.441Z,5.60
2023-04-19T03:01:06.946Z,6.22
2023-04-19T03:03:34.958Z,5.70
2023-04-19T03:06:04.742Z,6.30
2023-04-19T03:08:34.018Z,6.10
2023-04-19T03:11:02.022Z,6.45
2023-04-19T03:13:32.272Z,6.68
2023-04-19T03:16:00.920Z,6.50
2023-04-19T03:18:31.618Z,5.68
2023-04-19T03:21:01.605Z,6.22
2023-04-19T03:23:36.846Z,5.95
2023-04-19T03:26:05.302Z,6.70
2023-04-19T03:28:41.258Z,6.43
2023-04-19T03:31:11.737Z,6.25
2023-04-19T03:33:41.063Z,6.20
2023-04-19T03:36:10.350Z,5.97
2023-04-19T03:38:41.317Z,6.28
2023-04-19T03:41:20.380Z,7.10
2023-04-19T03:43:52.180Z,7.07
2023-04-19T03:46:20.412Z,6.80
2023-04-19T03:48:49.207Z,6.95
2023-04-19T03:51:17.111Z,6.63
2023-04-19T03:53:46.941Z,7.20
2023-04-19T03:56:18.727Z,7.15
2023-04-19T03:58:47.460Z,7.03
2023-04-19T04:01:19.669Z,6.38
2023-04-19T04:03:47.774Z,7.22
2023-04-19T04:06:16.594Z,7.55
2023-04-19T04:08:44.650Z,7.13
2023-04-19T04:11:14.060Z,7.13
2023-04-19T04:13:43.194Z,7.20
2023-04-19T04:16:19.151Z,7.20
2023-04-19T04:18:47.668Z,7.50
2023-04-19T04:21:16.780Z,7.13
2023-04-19T04:23:50.099Z,7.70
2023-04-19T04:26:34.040Z,7.32
2023-04-19T04:29:19.007Z,7.25
2023-04-19T04:31:47.655Z,6.68
2023-04-19T04:34:18.884Z,6.97
2023-04-19T04:36:53.490Z,7.07
2023-04-19T04:39:24.303Z,6.82
2023-04-19T04:41:54.016Z,7.25
2023-04-19T04:44:22.493Z,7.95
2023-04-19T04:46:50.429Z,7.28
2023-04-19T04:49:24.397Z,7.47
2023-04-19T04:51:52.345Z,7.88
2023-04-19T04:54:21.777Z,7.38
2023-04-19T04:56:50.292Z,8.07
2023-04-19T04:59:19.562Z,7.60
2023-04-19T05:01:50.557Z,7.40
2023-04-19T05:04:19.081Z,7.93
2023-04-19T05:06:47.041Z,7.68
2023-04-19T05:09:21.784Z,7.72
2023-04-19T05:11:49.890Z,7.03
2023-04-19T05:14:19.297Z,7.82
2023-04-19T05:16:47.274Z,7.60
2023-04-19T05:19:15.285Z,7.28
2023-04-19T05:21:49.485Z,7.43
2023-04-19T05:24:18.729Z,8.40
2023-04-19T05:26:47.581Z,8.23
2023-04-19T05:29:16.055Z,8.25
2023-04-19T05:31:51.600Z,8.98
2023-04-19T05:34:24.339Z,9.15
2023-04-19T05:36:53.843Z,9.05
2023-04-19T05:39:22.008Z,10.20
2023-04-19T05:41:50.116Z,11.18
2023-04-19T05:44:18.805Z,10.55
2023-04-19T05:46:47.535Z,9.75
2023-04-19T05:49:22.569Z,10.52
2023-04-19T05:52:06.593Z,10.50
2023-04-19T05:54:45.068Z,10.15
2023-04-19T05:57:13.247Z,10.15
2023-04-19T05:59:41.431Z,11.90
2023-04-19T06:02:10.846Z,10.98
2023-04-19T06:04:40.349Z,11.80
2023-04-19T06:07:17.783Z,11.35
2023-04-19T06:09:56.285Z,11.23
2023-04-19T06:12:24.248Z,11.43
2023-04-19T06:14:53.930Z,11.35
2023-04-19T06:17:25.725Z,10.77
2023-04-19T06:19:57.451Z,11.48
2023-04-19T06:22:26.138Z,11.25
2023-04-19T06:24:53.853Z,11.82
2023-04-19T06:27:21.762Z,10.85
2023-04-19T06:29:51.241Z,12.55
2023-04-19T06:32:19.782Z,11.30
2023-04-19T06:34:47.831Z,11.57
2023-04-19T06:37:17.180Z,11.32
2023-04-19T06:39:44.829Z,11.27
2023-04-19T06:42:12.833Z,12.27
2023-04-19T06:44:40.947Z,11.65
2023-04-19T06:47:08.756Z,11.57
2023-04-19T06:49:36.482Z,11.75
2023-04-19T06:52:04.254Z,12.52
2023-04-19T06:54:33.469Z,12.43
2023-04-19T06:57:02.384Z,12.43
2023-04-19T06:59:32.380Z,13.25
2023-04-19T07:02:00.239Z,13.23
2023-04-19T07:04:28.370Z,13.98
2023-04-19T07:06:56.719Z,13.85
2023-04-19T07:09:24.416Z,13.93
2023-04-19T07:11:53.861Z,14.13
2023-04-19T07:14:22.005Z,14.07
2023-04-19T07:16:50.971Z,12.93
2023-04-19T07:19:20.592Z,13.15
2023-04-19T07:21:48.817Z,12.25
2023-04-19T07:24:17.405Z,12.32
2023-04-19T07:26:45.589Z,12.80
2023-04-19T07:29:15.046Z,12.35
2023-04-19T07:31:43.335Z,14.38
2023-04-19T07:34:11.009Z,13.20
2023-04-19T07:36:39.070Z,13.02
2023-04-19T07:39:06.858Z,13.73
2023-04-19T07:41:35.973Z,13.57
2023-04-19T07:44:04.008Z,12.73
2023-04-19T07:46:33.148Z,13.23
2023-04-19T07:49:00.995Z,13.63
2023-04-19T07:51:29.311Z,14.35
2023-04-19T07:53:56.970Z,15.63
2023-04-19T07:56:26.396Z,14.50
2023-04-19T07:59:06.949Z,15.68
2023-04-19T08:01:38.309Z,14.18
2023-04-19T08:04:06.890Z,13.75
2023-04-19T08:06:34.922Z,14.27
2023-04-19T08:09:03.030Z,15.40
2023-04-19T08:11:31.230Z,15.55
2023-04-19T08:14:09.294Z,16.23
2023-04-19T08:17:19.051Z,13.75
2023-04-19T08:19:29.000Z,13.35
2023-04-19T08:21:57.495Z,12.80
2023-04-19T08:24:25.361Z,13.85
2023-04-19T08:26:54.770Z,14.05
2023-04-19T08:29:23.177Z,13.07
2023-04-19T08:31:52.843Z,13.23
2023-04-19T08:34:21.082Z,12.98
2023-04-19T08:36:55.812Z,12.60
2023-04-19T08:39:33.124Z,12.73
2023-04-19T08:42:08.667Z,11.75
2023-04-19T08:44:54.329Z,11.70
2023-04-19T08:47:34.313Z,11.38
2023-04-19T08:50:20.265Z,12.20
2023-04-19T08:52:58.811Z,12.40
2023-04-19T08:55:29.964Z,11.50
2023-04-19T08:57:58.029Z,10.95
2023-04-19T09:00:26.091Z,10.73
2023-04-19T09:02:56.427Z,10.80
2023-04-19T09:05:24.710Z,9.35
2023-04-19T09:07:52.969Z,9.65
2023-04-19T09:10:22.886Z,10.63
2023-04-19T09:13:04.385Z,9.75
2023-04-19T09:15:40.069Z,9.70
2023-04-19T09:18:10.710Z,10.02
2023-04-19T09:20:40.223Z,10.20
2023-04-19T09:23:12.395Z,10.48
2023-04-19T09:25:59.221Z,10.55
2023-04-19T09:28:29.661Z,10.13
2023-04-19T09:31:10.594Z,10.27
2023-04-19T09:33:45.637Z,10.82
2023-04-19T09:36:28.039Z,10.73
2023-04-19T09:38:56.079Z,10.38
2023-04-19T09:41:24.010Z,12.07
2023-04-19T09:46:33.611Z,10.48
2023-04-19T09:49:27.866Z,9.50
2023-04-19T09:52:10.385Z,10.02
2023-04-19T09:54:39.045Z,9.60
2023-04-19T09:57:07.198Z,9.02
2023-04-19T09:59:35.513Z,8.32
2023-04-19T10:02:06.641Z,9.63
2023-04-19T10:04:57.100Z,8.27
2023-04-19T10:07:30.543Z,9.07
2023-04-19T10:15:05.425Z,8.75
2023-04-19T10:17:33.657Z,8.05
2023-04-19T10:20:08.166Z,7.63
2023-04-19T10:22:37.689Z,8.18
2023-04-19T10:25:10.649Z,7.40
2023-04-19T10:27:38.354Z,7.10
2023-04-19T10:30:12.603Z,7.18
2023-04-19T10:32:41.852Z,7.43
2023-04-19T10:35:18.178Z,7.18
2023-04-19T10:38:04.482Z,7.50
2023-04-19T10:41:01.057Z,7.25
2023-04-19T10:43:30.200Z,6.30
2023-04-19T10:46:01.513Z,6.13
2023-04-19T10:48:38.150Z,5.82
2023-04-19T10:51:14.506Z,5.82
2023-04-19T10:53:57.938Z,5.57
2023-04-19T10:57:02.125Z,5.30
2023-04-19T10:59:34.289Z,5.40
2023-04-19T11:02:03.360Z,5.68
2023-04-19T11:05:01.066Z,5.30
2023-04-19T11:07:57.646Z,6.60
2023-04-19T11:10:31.911Z,6.00
2023-04-19T11:12:59.805Z,5.45
2023-04-19T11:15:27.671Z,5.90
2023-04-19T11:18:11.193Z,5.97
2023-04-19T11:20:43.730Z,6.00
2023-04-19T11:23:18.839Z,6.00
2023-04-19T11:25:48.471Z,5.55
2023-04-19T11:28:18.285Z,5.32
2023-04-19T11:30:46.940Z,4.85
2023-04-19T11:33:16.411Z,4.88
2023-04-19T11:35:44.682Z,5.05
2023-04-19T11:38:14.906Z,4.55
2023-04-19T11:40:44.252Z,4.68
2023-04-19T11:43:12.079Z,4.63
2023-04-19T11:45:40.481Z,4.63
2023-04-19T11:48:15.148Z,4.88
2023-04-19T11:50:44.264Z,4.43
2023-04-19T11:53:14.333Z,4.93
2023-04-19T11:55:52.449Z,4.40
2023-04-19T11:58:29.252Z,4.20
2023-04-19T12:00:58.475Z,3.47
2023-04-19T12:03:26.969Z,5.60
2023-04-19T12:05:56.583Z,5.53
2023-04-19T12:08:32.901Z,5.05
2023-04-19T12:11:03.351Z,4.72
2023-04-19T12:13:32.049Z,4.75
2023-04-19T12:16:00.773Z,5.22
2023-04-19T12:18:28.687Z,5.53
2023-04-19T12:20:58.285Z,5.82
2023-04-19T12:23:27.829Z,4.70
2023-04-19T12:25:55.693Z,4.57
2023-04-19T12:28:25.256Z,5.00
2023-04-19T12:30:53.470Z,4.18
2023-04-19T12:33:24.067Z,5.15
2023-04-19T12:35:55.290Z,4.47
2023-04-19T12:38:24.363Z,4.22
2023-04-19T12:40:52.610Z,4.18
2023-04-19T12:43:21.159Z,5.30
2023-04-19T12:45:50.568Z,4.25
2023-04-19T12:48:19.305Z,3.80
2023-04-19T12:50:47.764Z,4.00
2023-04-19T12:53:15.712Z,3.60
2023-04-19T12:55:47.443Z,3.55
2023-04-19T12:58:15.906Z,3.83
2023-04-19T13:00:43.810Z,3.47
2023-04-19T13:03:13.576Z,3.38
2023-04-19T13:05:41.715Z,3.35
2023-04-19T13:08:10.318Z,2.47
2023-04-19T13:10:38.509Z,2.55
2023-04-19T13:13:06.780Z,3.13
2023-04-19T13:15:34.981Z,2.38
2023-04-19T13:18:02.985Z,2.65
2023-04-19T13:20:32.355Z,2.50
2023-04-19T13:23:00.585Z,3.10
2023-04-19T13:25:29.474Z,3.10
2023-04-19T13:27:58.258Z,2.78
2023-04-19T13:30:28.399Z,2.30
2023-04-19T13:32:56.826Z,2.40
2023-04-19T13:35:25.271Z,2.83
2023-04-19T13:37:54.875Z,2.00
2023-04-19T13:40:22.764Z,1.80
2023-04-19T13:42:51.040Z,1.83
2023-04-19T13:45:19.000Z,1.80
2023-04-19T13:47:47.183Z,1.63
2023-04-19T13:50:15.373Z,1.40
2023-04-19T13:52:43.302Z,1.70
2023-04-19T13:55:12.930Z,1.77
2023-04-19T13:57:40.802Z,2.20
2023-04-19T14:00:09.892Z,1.80
2023-04-19T14:02:37.887Z,1.50
2023-04-19T14:05:06.538Z,1.67
2023-04-19T14:07:34.408Z,1.58
2023-04-19T14:10:02.857Z,1.60
2023-04-19T14:12:32.623Z,1.48
2023-04-19T14:15:00.702Z,1.17
2023-04-19T14:17:28.878Z,1.83
2023-04-19T14:19:57.852Z,1.63
2023-04-19T14:22:25.992Z,1.58
2023-04-19T14:24:54.287Z,1.48
2023-04-19T14:27:22.954Z,1.50
2023-04-19T14:29:52.074Z,1.20
2023-04-19T14:32:25.112Z,1.50
2023-04-19T14:34:56.372Z,1.20
2023-04-19T14:37:25.597Z,1.50
2023-04-19T14:39:54.162Z,1.40
2023-04-19T14:42:23.286Z,1.80
2023-04-19T14:44:53.538Z,1.33
2023-04-19T14:47:22.766Z,1.65
2023-04-19T14:49:51.280Z,1.52
2023-04-19T14:52:19.236Z,1.73
2023-04-19T14:54:47.223Z,1.55
2023-04-19T14:57:15.534Z,1.92
2023-04-19T14:59:43.458Z,1.70
2023-04-19T15:02:13.627Z,2.22
2023-04-19T15:04:42.365Z,2.28
2023-04-19T15:07:11.126Z,1.55
2023-04-19T15:09:40.279Z,1.60
2023-04-19T15:12:08.365Z,1.67
2023-04-19T15:14:36.932Z,1.60
2023-04-19T15:17:04.818Z,1.58
2023-04-19T15:19:34.855Z,1.48
2023-04-19T15:22:04.154Z,2.20
2023-04-19T15:24:33.591Z,2.30
2023-04-19T15:27:01.821Z,1.85
2023-04-19T15:29:29.717Z,1.52
2023-04-19T15:31:57.996Z,1.70
2023-04-19T15:34:25.905Z,1.40
2023-04-19T15:36:55.893Z,1.60
2023-04-19T15:39:23.945Z,1.50
2023-04-19T15:41:52.105Z,1.95
2023-04-19T15:44:20.125Z,1.63
2023-04-19T15:46:48.017Z,1.70
2023-04-19T15:49:16.739Z,1.67
2023-04-19T15:51:47.849Z,1.30
2023-04-19T15:54:17.317Z,2.00
2023-04-19T15:56:45.306Z,1.80
2023-04-19T15:59:13.255Z,2.10
2023-04-19T16:01:41.634Z,1.60
2023-04-19T16:04:10.230Z,1.73
2023-04-19T16:06:38.446Z,1.67
2023-04-19T16:09:08.120Z,1.50
2023-04-19T16:11:39.042Z,1.55
2023-04-19T16:14:07.219Z,1.40
2023-04-19T16:16:35.416Z,1.90
2023-04-19T16:19:03.445Z,1.83
2023-04-19T16:21:31.663Z,1.70
2023-04-19T16:24:00.720Z,1.45
2023-04-19T16:26:28.598Z,1.50
2023-04-19T16:28:59.372Z,1.90
2023-04-19T16:31:27.598Z,1.83
2023-04-19T16:33:57.848Z,1.98
2023-04-19T16:36:25.686Z,1.50
2023-04-19T16:38:53.876Z,1.50
2023-04-19T16:41:21.937Z,1.23
2023-04-19T16:43:49.940Z,1.50
2023-04-19T16:46:19.112Z,1.90
2023-04-19T16:48:46.967Z,1.88
2023-04-19T16:51:14.769Z,1.60
2023-04-19T16:53:43.485Z,1.73
2023-04-19T16:56:11.321Z,1.80
2023-04-19T16:58:38.959Z,2.10
2023-04-19T17:01:09.093Z,1.75
2023-04-19T17:03:38.882Z,1.52
2023-04-19T17:06:07.270Z,1.60
2023-04-19T17:08:35.235Z,1.58
2023-04-19T17:11:03.003Z,1.70
2023-04-19T17:13:31.218Z,2.10
2023-04-19T17:15:59.076Z,2.15
2023-04-19T17:18:28.115Z,1.80
2023-04-19T17:20:58.791Z,1.88
2023-04-19T17:23:26.860Z,2.22
2023-04-19T17:25:55.694Z,1.90
2023-04-19T17:28:23.418Z,1.58
2023-04-19T17:30:51.334Z,1.65
2023-04-19T17:33:19.125Z,1.77
2023-04-19T17:35:47.611Z,1.50
2023-04-19T17:38:16.872Z,1.90
2023-04-19T17:40:46.247Z,1.85
2023-04-19T17:43:15.145Z,2.08
2023-04-19T17:45:43.011Z,1.98
2023-04-19T17:48:10.999Z,2.03
2023-04-19T17:50:38.861Z,1.92
2023-04-19T17:53:06.692Z,2.13
2023-04-19T17:55:36.427Z,2.20
2023-04-19T17:58:04.381Z,2.00
2023-04-19T18:00:32.121Z,2.13
2023-04-19T18:03:00.761Z,2.00
2023-04-19T18:05:29.184Z,2.00
2023-04-19T18:07:57.354Z,1.80
2023-04-19T18:10:25.647Z,1.92
2023-04-19T18:12:54.948Z,1.80
2023-04-19T18:15:23.484Z,1.95
2023-04-19T18:17:51.419Z,2.20
2023-04-19T18:20:21.060Z,2.08
2023-04-19T18:22:49.805Z,2.55
2023-04-19T18:25:17.780Z,2.70
2023-04-19T18:27:46.168Z,2.20
2023-04-19T18:30:16.239Z,2.00
2023-04-19T18:32:44.432Z,1.90
2023-04-19T18:35:12.273Z,2.08
2023-04-19T18:37:40.259Z,2.50
2023-04-19T18:40:09.346Z,2.70
2023-04-19T18:42:37.062Z,2.55
2023-04-19T18:45:06.058Z,2.70
2023-04-19T18:47:35.766Z,2.55
2023-04-19T18:50:06.491Z,3.13
2023-04-19T18:52:36.264Z,2.83
2023-04-19T18:55:05.638Z,2.70
2023-04-19T18:57:35.046Z,3.45
2023-04-19T19:00:05.503Z,3.13
2023-04-19T19:02:37.141Z,3.47
2023-04-19T19:05:08.314Z,2.80
2023-04-19T19:07:38.079Z,2.88
2023-04-19T19:10:19.500Z,2.80
2023-04-19T19:12:51.278Z,2.40
2023-04-19T19:15:19.311Z,2.17
2023-04-19T19:17:50.734Z,2.40
2023-04-19T19:20:20.509Z,2.55
2023-04-19T19:22:48.866Z,2.70
2023-04-19T19:25:16.915Z,2.17
2023-04-19T19:28:03.015Z,2.60
2023-04-19T19:30:34.032Z,2.40
2023-04-19T19:33:04.815Z,3.10
2023-04-19T19:35:33.709Z,2.58
2023-04-19T19:38:01.657Z,2.40
2023-04-19T19:40:32.468Z,3.05
2023-04-19T19:43:01.781Z,3.40
2023-04-19T19:45:29.844Z,2.45
2023-04-19T19:48:00.114Z,3.10
2023-04-19T19:53:01.914Z,3.20
2023-04-19T19:55:30.186Z,4.00
2023-04-19T20:03:00.602Z,3.53
2023-04-19T20:05:30.185Z,3.72
2023-04-19T20:08:08.586Z,3.45
2023-04-19T20:10:40.957Z,3.20
2023-04-19T20:13:09.320Z,3.50
2023-04-19T20:15:38.812Z,3.47
2023-04-19T20:18:08.162Z,3.38
2023-04-19T20:20:38.362Z,3.70
2023-04-19T20:23:06.869Z,3.38
2023-04-19T20:25:34.986Z,3.05
2023-04-19T20:28:03.659Z,2.58
2023-04-19T20:30:31.523Z,2.88
2023-04-19T20:33:00.055Z,2.90
2023-04-19T20:35:28.388Z,3.00
2023-04-19T20:38:02.381Z,2.60
2023-04-19T20:40:32.128Z,2.88
2023-04-19T20:43:00.052Z,3.25
2023-04-19T20:45:28.338Z,3.28
2023-04-19T20:47:56.188Z,4.53
2023-04-19T20:50:24.219Z,3.20
2023-04-19T20:52:52.382Z,4.10
2023-04-19T20:55:21.694Z,3.72
2023-04-19T20:57:49.646Z,3.25
2023-04-19T21:00:18.559Z,3.25
2023-04-19T21:02:46.374Z,3.60
2023-04-19T21:05:14.259Z,2.88
2023-04-19T21:07:41.987Z,3.38
2023-04-19T21:10:11.496Z,3.30
2023-04-19T21:12:40.814Z,2.92
2023-04-19T21:15:09.203Z,2.95
2023-04-19T21:17:36.943Z,3.00
2023-04-19T21:20:11.994Z,2.97
2023-04-19T21:22:40.217Z,3.00
2023-04-19T21:25:09.290Z,3.17
2023-04-19T21:27:37.494Z,3.10
2023-04-19T21:30:08.787Z,3.20
2023-04-19T21:32:36.517Z,2.80
2023-04-19T21:35:04.434Z,2.80
2023-04-19T21:37:32.524Z,3.00
2023-04-19T21:40:00.646Z,3.50
2023-04-19T21:42:28.651Z,3.28
2023-04-19T21:44:56.552Z,2.95
2023-04-19T21:47:25.979Z,3.30
2023-04-19T21:49:54.156Z,3.50
2023-04-19T21:52:22.621Z,3.10
2023-04-19T21:54:50.288Z,3.50
2023-04-19T21:57:21.921Z,3.10
2023-04-19T21:59:49.826Z,3.10
2023-04-19T22:02:18.226Z,3.03
2023-04-19T22:04:47.325Z,3.25
2023-04-19T22:07:18.655Z,2.80
2023-04-19T22:09:46.502Z,4.75
2023-04-19T22:12:14.464Z,3.53
2023-04-19T22:14:42.066Z,2.88
2023-04-19T22:17:10.289Z,3.20
2023-04-19T22:19:39.376Z,3.67
2023-04-19T22:22:08.449Z,3.08
2023-04-19T22:24:43.947Z,3.00
2023-04-19T22:27:21.291Z,3.20
2023-04-19T22:29:49.245Z,2.67
2023-04-19T22:32:17.085Z,3.30
2023-04-19T22:34:45.021Z,3.00
2023-04-19T22:37:14.324Z,2.83
2023-04-19T22:39:42.039Z,3.03
2023-04-19T22:42:10.086Z,2.92
2023-04-19T22:44:38.045Z,3.08
2023-04-19T22:47:05.930Z,3.10
2023-04-19T22:49:33.924Z,4.32
2023-04-19T22:52:01.747Z,2.90
2023-04-19T22:54:31.164Z,2.92
2023-04-19T22:56:59.005Z,3.22
2023-04-19T22:59:26.921Z,2.85
2023-04-19T23:01:54.961Z,3.67
2023-04-19T23:04:24.071Z,3.30
2023-04-19T23:06:52.468Z,3.40
2023-04-19T23:09:20.170Z,2.92
2023-04-19T23:11:49.591Z,3.35
2023-04-19T23:14:18.342Z,3.20
2023-04-19T23:16:46.300Z,3.00
2023-04-19T23:19:15.676Z,2.90
2023-04-19T23:21:43.528Z,3.42
2023-04-19T23:24:11.562Z,3.35
2023-04-19T23:26:39.363Z,3.13
2023-04-19T23:29:08.632Z,3.30
2023-04-19T23:31:36.883Z,3.05
2023-04-19T23:34:04.821Z,3.15
2023-04-19T23:36:32.585Z,3.28
2023-04-19T23:39:00.578Z,3.25
2023-04-19T23:41:28.346Z,3.72
2023-04-19T23:43:56.051Z,3.10
2023-04-19T23:46:25.439Z,3.70
2023-04-19T23:48:53.294Z,3.35
2023-04-19T23:51:21.096Z,3.35
2023-04-19T23:53:49.505Z,3.40
2023-04-19T23:56:17.120Z,3.55
2023-04-19T23:58:45.084Z,3.22
